createdAt,value
2022-12-25T05:07:22.229Z,8.20
2022-12-25T05:09:50.527Z,8.20
2022-12-25T05:12:19.681Z,8.30
2022-12-25T05:14:48.079Z,8.20
2022-12-25T05:17:16.540Z,8.30
2022-12-25T05:19:45.130Z,8.30
2022-12-25T05:22:13.574Z,8.40
2022-12-25T05:24:43.942Z,8.30
2022-12-25T05:27:12.354Z,8.30
2022-12-25T05:29:40.828Z,8.30
2022-12-25T05:32:09.172Z,8.30
2022-12-25T05:34:37.518Z,8.30
2022-12-25T05:37:05.897Z,8.30
2022-12-25T05:39:34.331Z,8.40
2022-12-25T05:42:04.371Z,8.30
2022-12-25T05:44:32.792Z,8.30
2022-12-25T05:47:01.348Z,8.30
2022-12-25T05:49:29.555Z,8.30
2022-12-25T05:52:00.712Z,8.30
2022-12-25T05:54:29.131Z,8.20
2022-12-25T05:56:57.911Z,8.20
2022-12-25T05:59:28.056Z,8.20
2022-12-25T06:01:56.704Z,8.20
2022-12-25T06:04:26.839Z,8.20
2022-12-25T06:06:55.327Z,8.10
2022-12-25T06:09:23.740Z,8.10
2022-12-25T06:11:52.512Z,8.10
2022-12-25T06:14:21.164Z,8.00
2022-12-25T06:16:54.348Z,8.00
2022-12-25T06:19:23.181Z,7.90
2022-12-25T06:21:54.709Z,7.80
2022-12-25T06:24:23.330Z,7.90
2022-12-25T06:26:52.122Z,7.80
2022-12-25T06:29:21.075Z,7.90
2022-12-25T06:31:49.851Z,7.90
2022-12-25T06:34:19.711Z,7.90
2022-12-25T06:36:48.427Z,7.90
2022-12-25T06:39:17.360Z,7.90
2022-12-25T06:41:45.663Z,7.90
2022-12-25T06:44:15.542Z,7.90
2022-12-25T06:46:44.066Z,8.00
2022-12-25T06:49:12.495Z,8.00
2022-12-25T06:51:43.546Z,8.00
2022-12-25T06:54:11.926Z,8.10
2022-12-25T06:56:40.399Z,8.10
2022-12-25T06:59:10.468Z,8.00
2022-12-25T07:01:43.195Z,8.10
2022-12-25T07:04:15.832Z,8.00
2022-12-25T07:06:45.626Z,8.00
2022-12-25T07:09:14.587Z,8.00
2022-12-25T07:11:42.961Z,8.00
2022-12-25T07:14:23.373Z,8.00
2022-12-25T07:16:52.778Z,8.00
2022-12-25T07:19:21.528Z,8.00
2022-12-25T07:21:51.429Z,8.00
2022-12-25T07:24:21.137Z,8.00
2022-12-25T07:26:50.268Z,8.00
2022-12-25T07:29:19.580Z,8.00
2022-12-25T07:31:48.379Z,8.00
2022-12-25T07:34:18.405Z,8.00
2022-12-25T07:36:46.743Z,8.10
2022-12-25T07:39:17.136Z,8.00
2022-12-25T07:41:45.980Z,8.10
2022-12-25T07:44:14.353Z,8.10
2022-12-25T07:46:42.997Z,8.10
2022-12-25T07:49:12.274Z,8.10
2022-12-25T07:51:40.855Z,8.10
2022-12-25T07:54:09.248Z,8.10
2022-12-25T07:56:39.629Z,8.10
2022-12-25T07:59:08.070Z,8.10
2022-12-25T08:01:36.721Z,8.20
2022-12-25T08:04:05.462Z,8.20
2022-12-25T08:06:35.616Z,8.20
2022-12-25T08:09:06.032Z,8.20
2022-12-25T08:11:35.179Z,8.20
2022-12-25T08:14:06.994Z,8.30
2022-12-25T08:16:35.758Z,8.30
2022-12-25T08:19:04.156Z,8.30
2022-12-25T08:21:32.663Z,8.30
2022-12-25T08:24:02.660Z,8.40
2022-12-25T08:26:31.328Z,8.40
2022-12-25T08:28:59.819Z,8.40
2022-12-25T08:31:31.179Z,8.40
2022-12-25T08:34:00.501Z,8.50
2022-12-25T08:36:28.928Z,8.50
2022-12-25T08:39:02.494Z,8.60
2022-12-25T08:41:31.894Z,8.60
2022-12-25T08:44:00.488Z,8.50
2022-12-25T08:46:30.364Z,8.50
2022-12-25T08:48:59.028Z,8.50
2022-12-25T08:51:28.078Z,8.50
2022-12-25T08:54:01.182Z,8.60
2022-12-25T08:56:30.307Z,8.50
2022-12-25T08:58:58.863Z,8.60
2022-12-25T09:01:27.569Z,8.70
2022-12-25T09:03:57.791Z,8.80
2022-12-25T09:06:26.185Z,8.70
2022-12-25T09:08:54.476Z,8.70
2022-12-25T09:11:23.841Z,8.60
2022-12-25T09:13:52.443Z,8.70
2022-12-25T09:16:22.627Z,8.70
2022-12-25T09:18:51.573Z,8.70
2022-12-25T09:21:23.322Z,8.70
2022-12-25T09:23:51.469Z,8.70
2022-12-25T09:26:20.425Z,8.80
2022-12-25T09:28:52.265Z,8.70
2022-12-25T09:31:22.233Z,8.70
2022-12-25T09:33:50.902Z,8.70
2022-12-25T09:36:23.817Z,8.70
2022-12-25T09:38:52.973Z,8.80
2022-12-25T09:41:28.313Z,8.80
2022-12-25T09:43:59.164Z,8.80
2022-12-25T09:46:36.734Z,8.90
2022-12-25T09:49:09.517Z,8.90
2022-12-25T09:51:40.232Z,8.90
2022-12-25T09:54:14.741Z,8.80
2022-12-25T09:56:43.134Z,8.90
2022-12-25T09:59:20.917Z,9.00
2022-12-25T10:02:02.562Z,8.90
2022-12-25T10:04:44.157Z,9.00
2022-12-25T10:07:19.792Z,9.00
2022-12-25T10:09:56.298Z,9.00
2022-12-25T10:12:39.908Z,8.90
2022-12-25T10:15:21.284Z,9.00
2022-12-25T10:18:02.612Z,9.00
2022-12-25T10:20:41.818Z,9.00
2022-12-25T10:23:16.436Z,9.00
2022-12-25T10:25:45.733Z,9.10
2022-12-25T10:28:16.744Z,9.00
2022-12-25T10:30:46.417Z,9.10
2022-12-25T10:33:17.391Z,9.10
2022-12-25T10:35:46.728Z,9.10
2022-12-25T10:38:19.059Z,9.20
2022-12-25T10:40:58.170Z,9.20
2022-12-25T10:43:32.030Z,9.20
2022-12-25T10:46:00.952Z,9.20
2022-12-25T10:48:30.784Z,9.30
2022-12-25T10:50:59.101Z,9.30
2022-12-25T10:53:30.776Z,9.30
2022-12-25T10:56:01.411Z,9.30
2022-12-25T10:58:30.405Z,9.30
2022-12-25T11:01:01.085Z,9.40
2022-12-25T11:03:32.487Z,9.40
2022-12-25T11:06:02.987Z,9.40
2022-12-25T11:08:36.169Z,9.40
2022-12-25T11:11:06.611Z,9.40
2022-12-25T11:13:37.508Z,9.40
2022-12-25T11:16:09.551Z,9.40
2022-12-25T11:18:47.867Z,9.50
2022-12-25T11:21:18.875Z,9.50
2022-12-25T11:23:50.085Z,9.50
2022-12-25T11:26:19.442Z,9.50
2022-12-25T11:28:47.561Z,9.50
2022-12-25T11:31:22.206Z,9.50
2022-12-25T11:33:54.221Z,9.50
2022-12-25T11:36:28.016Z,9.50
2022-12-25T11:38:58.386Z,9.50
2022-12-25T11:41:32.302Z,9.60
2022-12-25T11:44:02.008Z,9.60
2022-12-25T11:46:32.577Z,9.50
2022-12-25T11:49:02.710Z,9.60
2022-12-25T11:51:34.249Z,9.60
2022-12-25T11:54:08.823Z,9.50
2022-12-25T11:56:38.421Z,9.60
2022-12-25T11:59:17.928Z,9.60
2022-12-25T12:01:48.943Z,9.60
2022-12-25T12:04:24.385Z,9.80
2022-12-25T12:06:58.049Z,9.60
2022-12-25T12:09:34.844Z,9.60
2022-12-25T12:12:05.933Z,9.70
2022-12-25T12:14:49.524Z,9.60
2022-12-25T12:17:18.544Z,9.60
2022-12-25T12:19:46.628Z,9.60
2022-12-25T12:22:23.800Z,9.70
2022-12-25T12:24:57.324Z,9.70
2022-12-25T12:27:37.286Z,9.70
2022-12-25T12:30:06.897Z,9.70
2022-12-25T12:32:38.434Z,9.70
2022-12-25T12:35:16.326Z,9.70
2022-12-25T12:37:46.423Z,9.80
2022-12-25T12:40:33.130Z,9.70
2022-12-25T12:43:01.875Z,9.70
2022-12-25T12:45:32.084Z,9.70
2022-12-25T12:48:00.477Z,9.70
2022-12-25T12:50:34.731Z,9.80
2022-12-25T12:53:18.433Z,9.80
2022-12-25T12:55:47.885Z,9.80
2022-12-25T12:58:28.552Z,9.80
2022-12-25T13:01:11.241Z,9.80
2022-12-25T13:03:50.036Z,9.80
2022-12-25T13:06:21.691Z,9.80
2022-12-25T13:08:58.450Z,9.80
2022-12-25T13:11:29.891Z,9.80
2022-12-25T13:14:01.081Z,9.70
2022-12-25T13:16:32.254Z,9.70
2022-12-25T13:19:05.403Z,9.70
2022-12-25T13:21:34.696Z,9.80
2022-12-25T13:24:04.838Z,9.80
2022-12-25T13:26:34.443Z,9.80
2022-12-25T13:32:04.169Z,9.70
2022-12-25T13:34:33.746Z,9.80
2022-12-25T13:37:07.571Z,9.70
2022-12-25T13:39:36.254Z,9.70
2022-12-25T13:42:06.122Z,9.70
2022-12-25T13:44:43.619Z,9.70
2022-12-25T13:47:20.079Z,9.60
2022-12-25T13:49:48.947Z,9.70
2022-12-25T13:52:19.127Z,9.60
2022-12-25T13:54:58.581Z,9.80
2022-12-25T13:57:30.934Z,9.80
2022-12-25T13:59:59.261Z,9.80
2022-12-25T14:02:31.898Z,9.70
2022-12-25T14:05:00.127Z,9.80
2022-12-25T14:07:29.136Z,9.80
2022-12-25T14:09:59.800Z,9.80
2022-12-25T14:12:31.184Z,9.80
2022-12-25T14:15:00.712Z,9.80
2022-12-25T14:17:29.003Z,9.80
2022-12-25T14:20:05.691Z,9.80
2022-12-25T14:22:38.633Z,9.90
2022-12-25T14:25:15.663Z,9.80
2022-12-25T14:27:49.946Z,9.80
2022-12-25T14:30:18.365Z,9.90
2022-12-25T14:32:50.805Z,9.80
2022-12-25T14:35:23.352Z,10.00
2022-12-25T14:37:55.727Z,9.90
2022-12-25T14:40:26.829Z,9.90
2022-12-25T14:43:00.468Z,10.10
2022-12-25T14:45:35.559Z,10.00
2022-12-25T14:48:22.842Z,10.00
2022-12-25T14:50:58.101Z,10.00
2022-12-25T14:53:33.033Z,10.00
2022-12-25T14:56:01.316Z,10.10
2022-12-25T14:58:32.845Z,10.30
2022-12-25T15:01:02.377Z,10.10
2022-12-25T15:03:32.116Z,10.20
2022-12-25T15:06:03.089Z,10.10
2022-12-25T15:08:32.561Z,10.10
2022-12-25T15:11:05.645Z,10.20
2022-12-25T15:13:35.225Z,10.20
2022-12-25T15:16:06.836Z,10.20
2022-12-25T15:18:38.241Z,10.10
2022-12-25T15:21:07.209Z,10.20
2022-12-25T15:23:35.311Z,10.20
2022-12-25T15:26:07.012Z,10.20
2022-12-25T15:28:38.330Z,10.30
2022-12-25T15:31:35.805Z,10.30
2022-12-25T15:34:09.184Z,10.30
2022-12-25T15:36:37.228Z,10.40
2022-12-25T15:39:07.464Z,10.30
2022-12-25T15:42:10.953Z,10.30
2022-12-25T15:44:41.002Z,10.20
2022-12-25T15:47:11.605Z,10.20
2022-12-25T15:49:39.715Z,10.30
2022-12-25T15:52:40.824Z,10.20
2022-12-25T15:59:29.748Z,10.30
2022-12-25T16:02:47.293Z,10.20
2022-12-25T16:05:29.767Z,10.20
2022-12-25T16:07:59.938Z,10.20
2022-12-25T16:14:18.132Z,10.30
2022-12-25T16:16:48.990Z,10.30
2022-12-25T16:19:18.475Z,10.30
2022-12-25T16:21:47.572Z,10.40
2022-12-25T16:24:15.642Z,10.40
2022-12-25T16:26:43.856Z,10.30
2022-12-25T16:29:13.593Z,10.40
2022-12-25T16:31:44.028Z,10.40
2022-12-25T16:34:22.635Z,10.40
2022-12-25T16:36:52.230Z,10.40
2022-12-25T16:39:23.694Z,10.40
2022-12-25T16:41:51.808Z,10.40
2022-12-25T16:44:19.857Z,10.40
2022-12-25T16:46:48.491Z,10.40
2022-12-25T16:49:16.656Z,10.30
2022-12-25T16:51:44.760Z,10.50
2022-12-25T16:54:14.146Z,10.50
2022-12-25T16:57:28.490Z,10.40
2022-12-25T16:59:56.995Z,10.50
2022-12-25T17:02:25.556Z,10.50
2022-12-25T17:04:54.697Z,10.50
2022-12-25T17:07:23.136Z,10.60
2022-12-25T17:09:52.591Z,10.50
2022-12-25T17:12:57.439Z,10.60
2022-12-25T17:16:38.112Z,10.50
2022-12-25T17:18:57.965Z,10.60
2022-12-25T17:21:27.746Z,10.70
2022-12-25T17:24:01.720Z,10.60
2022-12-25T17:26:33.945Z,10.60
2022-12-25T17:29:02.494Z,10.60
2022-12-25T17:31:31.509Z,10.60
2022-12-25T17:34:02.017Z,10.60
2022-12-25T17:36:30.983Z,10.70
2022-12-25T17:39:00.966Z,10.70
2022-12-25T17:41:29.636Z,10.70
2022-12-25T17:43:59.659Z,10.70
2022-12-25T17:46:30.319Z,10.70
2022-12-25T17:49:00.117Z,10.80
2022-12-25T17:51:30.345Z,10.90
2022-12-25T17:54:00.688Z,10.80
2022-12-25T17:56:29.435Z,10.80
2022-12-25T17:59:00.625Z,10.80
2022-12-25T18:01:29.919Z,11.00
2022-12-25T18:04:00.743Z,11.00
2022-12-25T18:06:29.698Z,10.90
2022-12-25T18:08:59.126Z,10.90
2022-12-25T18:11:33.170Z,10.90
2022-12-25T18:14:04.783Z,10.90
2022-12-25T18:16:35.691Z,10.80
2022-12-25T18:19:04.088Z,10.90
2022-12-25T18:21:32.567Z,10.80
2022-12-25T18:24:01.278Z,10.80
2022-12-25T18:26:30.104Z,10.80
2022-12-25T18:28:58.709Z,10.80
2022-12-25T18:31:30.277Z,10.80
2022-12-25T18:34:00.057Z,10.80
2022-12-25T18:36:29.358Z,10.80
2022-12-25T18:38:58.166Z,10.90
2022-12-25T18:41:28.081Z,10.80
2022-12-25T18:43:56.697Z,10.80
2022-12-25T18:46:26.688Z,10.80
2022-12-25T18:48:57.941Z,10.70
2022-12-25T18:51:32.939Z,10.80
2022-12-25T18:54:05.609Z,10.70
2022-12-25T18:56:34.052Z,10.80
2022-12-25T18:59:04.042Z,10.70
2022-12-25T19:01:32.545Z,10.70
2022-12-25T19:04:05.619Z,10.70
2022-12-25T19:06:34.426Z,10.80
2022-12-25T19:09:09.444Z,10.70
2022-12-25T19:11:45.638Z,10.70
2022-12-25T19:14:17.679Z,10.70
2022-12-25T19:16:46.010Z,10.80
2022-12-25T19:19:16.170Z,10.80
2022-12-25T19:21:44.559Z,10.80
2022-12-25T19:24:14.464Z,10.70
2022-12-25T19:26:43.904Z,10.70
2022-12-25T19:29:12.411Z,10.80
2022-12-25T19:31:41.815Z,10.80
2022-12-25T19:34:10.385Z,10.80
2022-12-25T19:36:40.668Z,10.80
2022-12-25T19:39:09.879Z,10.80
2022-12-25T19:41:38.445Z,10.80
2022-12-25T19:44:07.373Z,10.80
2022-12-25T19:46:37.683Z,10.80
2022-12-25T19:49:06.413Z,10.90
2022-12-25T19:51:37.468Z,10.80
2022-12-25T19:54:07.965Z,10.80
2022-12-25T19:56:36.589Z,10.90
2022-12-25T19:59:05.071Z,10.80
2022-12-25T20:01:34.443Z,10.90
2022-12-25T20:04:03.013Z,10.90
2022-12-25T20:06:34.321Z,10.90
2022-12-25T20:09:04.145Z,10.80
2022-12-25T20:11:35.152Z,10.80
2022-12-25T20:14:03.738Z,10.80
2022-12-25T20:16:32.189Z,10.80
2022-12-25T20:19:01.324Z,10.80
2022-12-25T20:21:30.133Z,10.70
2022-12-25T20:23:59.037Z,10.70
2022-12-25T20:26:29.662Z,10.70
2022-12-25T20:29:00.167Z,10.70
2022-12-25T20:31:30.417Z,10.70
2022-12-25T20:34:00.489Z,10.80
2022-12-25T20:36:34.658Z,10.70
2022-12-25T20:39:06.362Z,10.70
2022-12-25T20:41:35.356Z,10.70
2022-12-25T20:44:06.831Z,10.70
2022-12-25T20:46:35.436Z,10.80
2022-12-25T20:49:03.768Z,10.80
2022-12-25T20:51:32.475Z,10.70
2022-12-25T20:54:01.161Z,10.70
2022-12-25T20:56:30.381Z,10.70
2022-12-25T20:59:00.165Z,10.60
2022-12-25T21:01:31.903Z,10.60
2022-12-25T21:04:00.714Z,10.60
2022-12-25T21:06:29.022Z,10.60
2022-12-25T21:08:57.556Z,10.60
2022-12-25T21:11:26.070Z,10.60
2022-12-25T21:13:54.995Z,10.60
2022-12-25T21:16:25.227Z,10.60
2022-12-25T21:18:55.500Z,10.60
2022-12-25T21:21:23.758Z,10.60
2022-12-25T21:23:52.675Z,10.60
2022-12-25T21:26:22.637Z,10.60
2022-12-25T21:28:52.089Z,10.60
2022-12-25T21:31:20.662Z,10.60
2022-12-25T21:33:54.698Z,10.60
2022-12-25T21:36:27.293Z,10.60
2022-12-25T21:38:57.890Z,10.50
2022-12-25T21:41:27.644Z,10.50
2022-12-25T21:43:56.845Z,10.50
2022-12-25T21:46:25.625Z,10.50
2022-12-25T21:48:54.418Z,10.50
2022-12-25T21:51:42.986Z,10.50
2022-12-25T21:54:12.057Z,10.50
2022-12-25T21:56:44.881Z,10.50
2022-12-25T21:59:15.228Z,10.50
2022-12-25T22:01:44.271Z,10.40
2022-12-25T22:04:14.117Z,10.50
2022-12-25T22:07:01.063Z,10.50
2022-12-25T22:09:29.496Z,10.50
2022-12-25T22:12:15.174Z,10.50
2022-12-25T22:14:55.332Z,10.50
2022-12-25T22:17:43.537Z,10.50
2022-12-25T22:20:13.835Z,10.50
2022-12-25T22:22:43.712Z,10.50
2022-12-25T22:25:12.575Z,10.50
2022-12-25T22:27:42.647Z,10.50
2022-12-25T22:30:13.702Z,10.60
2022-12-25T22:32:42.053Z,10.60
2022-12-25T22:35:12.367Z,10.60
2022-12-25T22:37:42.913Z,10.70
2022-12-25T22:40:13.456Z,10.60
2022-12-25T22:42:42.204Z,10.60
2022-12-25T22:45:12.174Z,10.60
2022-12-25T22:47:41.033Z,10.60
